Time;durP1;ratioP1;P1;durP2;ratioP2;P2;SDS_P1;SDS_P2;PMS_P1;PMS_P2;Temp;Humidity;BMP_temperature;BMP_pressure;BME280_temperature;BME280_humidity;BME280_pressure;Samples;Min_cycle;Max_cycle;Signal;HPM_P1;HPM_P2
2022/05/17 00:02:18;;;;;;;22.15;12.07;;;16.00;99.90;;;;;;5092623;28;20048;-67
2022/05/17 00:04:43;;;;;;;22.90;12.55;;;16.00;99.90;;;;;;5092575;28;20540;-67
2022/05/17 00:07:09;;;;;;;24.13;12.95;;;16.00;99.90;;;;;;5091212;28;20038;-67
2022/05/17 00:09:34;;;;;;;22.05;12.30;;;15.90;99.90;;;;;;5091947;28;20111;-67
2022/05/17 00:12:00;;;;;;;24.85;11.85;;;15.80;99.90;;;;;;5092181;28;20040;-67
2022/05/17 00:14:27;;;;;;;18.13;11.38;;;15.70;99.90;;;;;;5092407;28;20504;-67
2022/05/17 00:16:53;;;;;;;17.95;11.10;;;15.60;99.90;;;;;;5092197;28;20507;-67
2022/05/17 00:19:20;;;;;;;20.45;11.35;;;15.60;99.90;;;;;;5091764;28;20036;-67
2022/05/17 00:21:47;;;;;;;18.42;11.50;;;15.60;99.90;;;;;;5092153;28;20051;-67
2022/05/17 00:24:15;;;;;;;15.57;10.95;;;15.50;99.90;;;;;;5092055;28;20044;-67
2022/05/17 00:26:41;;;;;;;15.82;10.77;;;15.50;99.90;;;;;;5091895;28;20067;-67
2022/05/17 00:29:06;;;;;;;23.40;11.27;;;15.50;99.90;;;;;;5091788;28;20427;-67
2022/05/17 00:31:33;;;;;;;19.10;10.63;;;15.40;99.90;;;;;;5092050;28;20036;-67
2022/05/17 00:33:59;;;;;;;15.00;10.60;;;15.30;99.90;;;;;;5091995;28;20043;-67
2022/05/17 00:36:24;;;;;;;18.13;11.32;;;15.30;99.90;;;;;;5091984;28;20032;-67
2022/05/17 00:38:50;;;;;;;23.20;11.38;;;15.20;99.90;;;;;;5091485;28;20047;-67
2022/05/17 00:41:16;;;;;;;20.80;11.10;;;15.20;99.90;;;;;;5091663;28;20400;-67
2022/05/17 00:46:49;;;;;;;16.63;10.45;;;15.30;99.90;;;;;;5091765;28;20044;-67
2022/05/17 00:49:30;;;;;;;21.25;10.25;;;15.40;99.90;;;;;;5091219;28;20044;-67
2022/05/17 00:52:02;;;;;;;20.77;11.23;;;15.40;99.90;;;;;;5091856;28;20046;-68
2022/05/17 00:54:29;;;;;;;17.38;10.50;;;15.40;99.90;;;;;;5091759;28;20035;-67
2022/05/17 00:57:07;;;;;;;14.07;10.52;;;15.40;99.90;;;;;;5091592;28;20089;-67
2022/05/17 00:59:35;;;;;;;15.30;9.80;;;15.40;99.90;;;;;;5091049;28;20047;-67
2022/05/17 01:02:01;;;;;;;16.85;9.63;;;15.40;99.90;;;;;;5091298;28;20561;-67
2022/05/17 01:04:27;;;;;;;25.35;11.02;;;15.30;99.90;;;;;;5091453;28;20048;-67
2022/05/17 01:07:00;;;;;;;20.55;10.23;;;15.40;99.90;;;;;;5091653;28;20455;-67
2022/05/17 01:09:26;;;;;;;23.25;9.98;;;15.30;99.90;;;;;;5090790;28;20503;-67
2022/05/17 01:11:51;;;;;;;19.55;10.77;;;15.30;99.90;;;;;;5091357;28;20107;-67
2022/05/17 01:17:01;;;;;;;18.15;10.05;;;15.20;99.90;;;;;;5091448;28;20076;-67
2022/05/17 01:19:27;;;;;;;21.30;9.70;;;15.30;99.90;;;;;;5090841;28;20386;-67
2022/05/17 01:21:53;;;;;;;17.33;9.60;;;15.30;99.90;;;;;;5091142;28;20069;-67
2022/05/17 01:24:18;;;;;;;16.67;8.70;;;15.20;99.90;;;;;;5090932;28;20036;-67
2022/05/17 01:26:48;;;;;;;21.23;9.63;;;15.20;99.90;;;;;;5090918;28;20088;-67
2022/05/17 01:29:14;;;;;;;22.63;9.60;;;15.30;99.90;;;;;;5090758;28;20046;-67
2022/05/17 01:31:41;;;;;;;19.65;8.48;;;15.20;99.90;;;;;;5091220;28;20131;-67
2022/05/17 01:34:10;;;;;;;20.63;9.88;;;15.30;99.90;;;;;;5089876;28;20051;-67
2022/05/17 01:36:36;;;;;;;21.08;8.25;;;15.20;99.90;;;;;;5091122;28;20055;-67
2022/05/17 01:39:03;;;;;;;17.70;9.52;;;15.20;99.90;;;;;;5090661;28;20043;-67
2022/05/17 01:41:29;;;;;;;20.20;8.52;;;15.20;99.90;;;;;;5090794;28;20559;-68
2022/05/17 01:43:55;;;;;;;23.45;8.68;;;15.10;99.90;;;;;;5090948;28;20075;-67
2022/05/17 01:46:21;;;;;;;14.77;9.25;;;15.10;99.90;;;;;;5090970;28;20051;-67
2022/05/17 01:48:47;;;;;;;14.68;8.23;;;15.00;99.90;;;;;;5089227;28;20499;-67
2022/05/17 01:51:13;;;;;;;19.63;8.50;;;15.00;99.90;;;;;;5090913;28;20071;-67
2022/05/17 01:53:39;;;;;;;16.52;7.70;;;15.00;99.90;;;;;;5090788;28;20040;-67
2022/05/17 01:56:07;;;;;;;15.73;7.53;;;15.00;99.90;;;;;;5090754;28;20072;-67
2022/05/17 01:58:33;;;;;;;17.60;7.63;;;15.00;99.90;;;;;;5090444;28;20689;-67
2022/05/17 02:00:59;;;;;;;22.55;8.20;;;15.00;99.90;;;;;;5090902;28;20043;-67
2022/05/17 02:03:25;;;;;;;17.70;8.52;;;15.00;99.90;;;;;;5090800;28;20044;-67
2022/05/17 02:05:51;;;;;;;14.45;8.25;;;14.90;99.90;;;;;;5090717;28;20036;-67
2022/05/17 02:08:17;;;;;;;17.70;8.70;;;14.90;99.90;;;;;;5090368;28;20543;-66
2022/05/17 02:10:42;;;;;;;16.50;8.13;;;14.90;99.90;;;;;;5090342;28;20047;-67
2022/05/17 02:13:08;;;;;;;17.92;8.85;;;14.80;99.90;;;;;;5090520;28;20075;-67
2022/05/17 02:15:34;;;;;;;15.02;7.68;;;14.80;99.90;;;;;;5092618;28;20096;-67
2022/05/17 02:17:59;;;;;;;19.70;8.45;;;14.80;99.90;;;;;;5093293;28;20127;-67
2022/05/17 02:20:25;;;;;;;24.38;11.20;;;14.80;99.90;;;;;;5094209;28;20044;-67
2022/05/17 02:22:50;;;;;;;18.20;8.23;;;14.80;99.90;;;;;;5094478;28;20173;-67
2022/05/17 02:25:18;;;;;;;16.48;8.23;;;14.70;99.90;;;;;;5094344;28;20185;-67
2022/05/17 02:27:44;;;;;;;19.63;8.80;;;14.70;99.90;;;;;;5094404;28;20127;-67
2022/05/17 02:30:12;;;;;;;21.90;8.65;;;14.70;99.90;;;;;;5094099;28;20039;-67
2022/05/17 02:32:37;;;;;;;21.55;8.50;;;14.70;99.90;;;;;;5094324;28;20043;-67
2022/05/17 02:35:05;;;;;;;19.50;8.43;;;14.70;99.90;;;;;;5094171;28;20048;-67
2022/05/17 02:37:30;;;;;;;19.65;8.65;;;14.70;99.90;;;;;;5094268;28;20161;-67
2022/05/17 02:39:56;;;;;;;18.58;7.65;;;14.70;99.90;;;;;;5092297;28;20123;-67
2022/05/17 02:42:21;;;;;;;18.95;8.90;;;14.80;99.90;;;;;;5094180;28;20040;-67
2022/05/17 02:44:47;;;;;;;17.58;8.65;;;14.70;99.90;;;;;;5094054;28;20575;-67
2022/05/17 02:47:13;;;;;;;18.05;9.07;;;14.80;99.90;;;;;;5094113;28;20488;-67
2022/05/17 02:49:40;;;;;;;25.95;8.43;;;14.70;99.90;;;;;;5093534;28;20036;-67
2022/05/17 02:52:07;;;;;;;20.25;8.57;;;14.70;99.90;;;;;;5093958;28;20044;-67
2022/05/17 02:54:32;;;;;;;19.45;8.93;;;14.70;99.90;;;;;;5093730;28;20392;-67
2022/05/17 02:56:58;;;;;;;19.33;8.45;;;14.70;99.90;;;;;;5093857;28;20050;-67
2022/05/17 02:59:24;;;;;;;16.80;8.05;;;14.60;99.90;;;;;;5093452;28;20408;-67
2022/05/17 03:01:49;;;;;;;21.70;8.77;;;14.60;99.90;;;;;;5093791;28;20068;-67
2022/05/17 03:04:15;;;;;;;16.05;8.80;;;14.70;99.90;;;;;;5093752;28;20040;-67
2022/05/17 03:06:42;;;;;;;22.77;9.88;;;14.60;99.90;;;;;;5093575;28;20094;-67
2022/05/17 03:09:09;;;;;;;17.65;8.27;;;14.60;99.90;;;;;;5091868;28;20456;-67
2022/05/17 03:11:36;;;;;;;17.40;8.45;;;14.60;99.90;;;;;;5093663;28;20491;-67
2022/05/17 03:14:02;;;;;;;24.70;9.32;;;14.60;99.90;;;;;;5093621;28;20046;-67
2022/05/17 03:16:32;;;;;;;19.33;8.88;;;14.60;99.90;;;;;;5093499;28;20115;-67
2022/05/17 03:18:59;;;;;;;21.13;8.27;;;14.60;99.90;;;;;;5093144;28;20047;-67
2022/05/17 03:21:25;;;;;;;22.40;9.00;;;14.50;99.90;;;;;;5093404;28;20369;-67
2022/05/17 03:23:50;;;;;;;17.90;8.10;;;14.50;99.90;;;;;;5093206;28;20070;-67
2022/05/17 03:26:16;;;;;;;18.52;8.50;;;14.40;99.90;;;;;;5092297;28;20051;-67
2022/05/17 03:28:41;;;;;;;14.73;8.65;;;14.50;99.90;;;;;;5092466;28;20051;-67
2022/05/17 03:31:08;;;;;;;18.50;8.15;;;14.50;99.90;;;;;;5093261;28;20039;-67
2022/05/17 03:33:34;;;;;;;19.02;8.20;;;14.40;99.90;;;;;;5092345;28;20040;-67
2022/05/17 03:35:59;;;;;;;23.73;8.95;;;14.50;99.90;;;;;;5090077;28;20484;-67
2022/05/17 03:38:26;;;;;;;17.77;8.13;;;14.50;99.90;;;;;;5090493;28;20097;-67
2022/05/17 03:40:52;;;;;;;20.55;8.52;;;14.50;99.90;;;;;;5093073;28;20081;-67
2022/05/17 03:43:19;;;;;;;18.15;8.40;;;14.50;99.90;;;;;;5092400;28;20054;-67
2022/05/17 03:45:45;;;;;;;16.95;7.93;;;14.50;99.90;;;;;;5090550;28;20615;-67
2022/05/17 03:48:11;;;;;;;19.38;8.38;;;14.40;99.90;;;;;;5091981;28;20574;-67
2022/05/17 03:50:37;;;;;;;15.27;8.45;;;14.40;99.90;;;;;;5092455;28;20032;-67
2022/05/17 03:53:03;;;;;;;15.90;7.95;;;14.50;99.90;;;;;;5092669;28;20075;-67
2022/05/17 03:55:29;;;;;;;21.92;8.48;;;14.50;99.90;;;;;;5092759;28;20035;-67
2022/05/17 03:57:55;;;;;;;22.13;8.45;;;14.40;99.90;;;;;;5092758;28;20550;-67
2022/05/17 04:00:21;;;;;;;25.52;9.52;;;14.50;99.90;;;;;;5092094;28;20585;-67
2022/05/17 04:02:47;;;;;;;17.08;8.20;;;14.50;99.90;;;;;;5092541;28;20036;-67
2022/05/17 04:05:13;;;;;;;19.08;7.85;;;14.50;99.90;;;;;;5092393;28;20119;-67
2022/05/17 04:07:39;;;;;;;18.38;8.23;;;14.60;99.90;;;;;;5092363;28;20086;-67
2022/05/17 04:10:07;;;;;;;17.90;8.05;;;14.60;99.90;;;;;;5092013;28;20074;-67
2022/05/17 04:12:33;;;;;;;23.27;8.98;;;14.70;99.90;;;;;;5092565;28;20071;-67
2022/05/17 04:14:58;;;;;;;21.60;8.13;;;14.60;99.90;;;;;;5092377;28;20071;-67
2022/05/17 04:17:24;;;;;;;16.63;8.40;;;14.60;99.90;;;;;;5092275;28;20090;-67
2022/05/17 04:19:50;;;;;;;24.23;8.80;;;14.60;99.90;;;;;;5090571;28;20079;-67
2022/05/17 04:22:15;;;;;;;23.20;8.30;;;14.70;99.90;;;;;;5092291;28;20075;-67
2022/05/17 04:24:41;;;;;;;19.25;7.82;;;14.70;99.90;;;;;;5092264;28;20040;-67
2022/05/17 04:27:08;;;;;;;21.15;8.70;;;14.80;99.90;;;;;;5092072;28;20048;-67
2022/05/17 04:29:34;;;;;;;19.75;8.70;;;14.80;99.90;;;;;;5091642;28;20063;-67
2022/05/17 04:31:59;;;;;;;21.95;8.48;;;14.80;99.90;;;;;;5092062;28;20424;-67
2022/05/17 04:34:25;;;;;;;17.73;7.75;;;14.90;99.90;;;;;;5090665;28;20043;-67
2022/05/17 04:36:50;;;;;;;20.05;8.07;;;14.80;99.90;;;;;;5092042;28;20036;-67
2022/05/17 04:39:16;;;;;;;26.92;8.75;;;14.90;99.90;;;;;;5091363;28;20432;-67
2022/05/17 04:41:43;;;;;;;17.92;7.95;;;15.00;99.90;;;;;;5091699;28;20459;-67
2022/05/17 04:44:09;;;;;;;22.55;9.07;;;15.10;99.90;;;;;;5091767;28;20411;-67
2022/05/17 04:46:34;;;;;;;20.67;8.38;;;15.20;99.90;;;;;;5091749;28;20412;-67
2022/05/17 04:49:00;;;;;;;24.40;8.38;;;15.20;99.90;;;;;;5089876;28;20050;-67
2022/05/17 04:51:27;;;;;;;17.80;7.72;;;15.20;99.90;;;;;;5090423;28;20450;-67
2022/05/17 04:53:52;;;;;;;20.40;9.13;;;15.30;99.90;;;;;;5091837;28;20039;-67
2022/05/17 04:56:19;;;;;;;21.63;8.15;;;15.30;99.90;;;;;;5091722;28;20081;-67
2022/05/17 04:58:45;;;;;;;21.90;8.00;;;15.40;99.90;;;;;;5091089;28;20052;-67
2022/05/17 05:01:10;;;;;;;14.95;7.32;;;15.60;99.90;;;;;;5091537;28;20036;-68
2022/05/17 05:03:36;;;;;;;17.42;7.07;;;15.70;99.90;;;;;;5091398;28;20048;-67
2022/05/17 05:06:02;;;;;;;18.77;7.75;;;15.80;99.90;;;;;;5091572;28;20040;-67
2022/05/17 05:08:27;;;;;;;19.00;7.35;;;16.00;99.90;;;;;;5091063;28;20056;-67
2022/05/17 05:10:53;;;;;;;16.73;8.13;;;16.10;99.90;;;;;;5091350;28;20572;-67
2022/05/17 05:13:20;;;;;;;11.82;7.10;;;16.20;99.90;;;;;;5091313;28;20040;-67
2022/05/17 05:15:46;;;;;;;11.93;6.65;;;16.30;99.90;;;;;;5091242;28;20036;-67
2022/05/17 05:18:13;;;;;;;17.98;7.05;;;16.40;99.90;;;;;;5091013;28;20071;-67
2022/05/17 05:20:43;;;;;;;16.60;6.80;;;16.50;99.90;;;;;;5091103;28;20073;-68
2022/05/17 05:23:09;;;;;;;18.92;6.85;;;16.50;99.90;;;;;;5091309;28;20036;-67
2022/05/17 05:25:38;;;;;;;18.70;7.35;;;16.40;99.90;;;;;;5091205;28;20454;-67
2022/05/17 05:28:06;;;;;;;19.00;8.10;;;16.50;99.90;;;;;;5090891;28;20036;-67
2022/05/17 05:30:32;;;;;;;18.35;6.80;;;16.40;99.90;;;;;;5090587;28;20503;-67
2022/05/17 05:32:57;;;;;;;19.80;6.38;;;16.30;99.90;;;;;;5090938;28;20042;-67
2022/05/17 05:35:25;;;;;;;18.52;7.25;;;16.40;99.90;;;;;;5091111;28;20032;-67
2022/05/17 05:37:51;;;;;;;17.45;6.57;;;16.50;99.90;;;;;;5089531;28;20048;-67
2022/05/17 05:40:18;;;;;;;16.80;8.00;;;16.60;99.90;;;;;;5090598;28;20042;-67
2022/05/17 05:42:44;;;;;;;19.88;7.40;;;16.70;99.90;;;;;;5090988;28;20048;-67
2022/05/17 05:45:11;;;;;;;14.95;7.18;;;16.80;99.90;;;;;;5090887;28;20040;-67
2022/05/17 05:47:37;;;;;;;17.45;7.40;;;16.90;99.90;;;;;;5089746;28;20047;-67
2022/05/17 05:50:03;;;;;;;22.73;7.28;;;17.00;99.90;;;;;;5091616;28;20036;-67
2022/05/17 05:52:29;;;;;;;20.73;7.00;;;17.10;99.90;;;;;;5093807;28;20040;-67
2022/05/17 05:54:55;;;;;;;21.73;6.95;;;17.20;99.90;;;;;;5094962;28;20047;-67
2022/05/17 05:57:21;;;;;;;17.10;6.45;;;17.20;99.90;;;;;;5094894;28;20036;-67
2022/05/17 05:59:46;;;;;;;14.63;6.63;;;17.30;99.90;;;;;;5094284;28;20032;-67
2022/05/17 06:02:12;;;;;;;16.88;6.95;;;17.30;99.90;;;;;;5094738;28;20043;-67
2022/05/17 06:04:38;;;;;;;11.80;6.88;;;17.30;99.90;;;;;;5094879;28;20051;-68
2022/05/17 06:07:04;;;;;;;21.38;6.68;;;17.20;99.90;;;;;;5094877;28;20423;-68
2022/05/17 06:09:31;;;;;;;14.02;6.78;;;17.20;99.90;;;;;;5094259;28;20052;-68
2022/05/17 06:11:56;;;;;;;22.83;7.57;;;17.10;99.90;;;;;;5094630;28;20038;-68
2022/05/17 06:14:22;;;;;;;18.52;7.40;;;17.10;99.90;;;;;;5094487;28;20432;-68
2022/05/17 06:16:51;;;;;;;19.63;7.50;;;17.20;99.90;;;;;;5094485;28;20048;-67
2022/05/17 06:19:17;;;;;;;17.35;6.85;;;17.30;99.90;;;;;;5094272;28;20071;-67
2022/05/17 06:21:43;;;;;;;20.70;7.63;;;17.30;99.90;;;;;;5094566;28;20083;-67
2022/05/17 06:24:09;;;;;;;16.17;7.07;;;17.30;99.90;;;;;;5094322;28;20040;-67
2022/05/17 06:26:34;;;;;;;18.65;7.38;;;17.40;99.90;;;;;;5094466;28;20044;-68
2022/05/17 06:29:00;;;;;;;16.50;6.70;;;17.50;99.90;;;;;;5093823;28;20055;-68
2022/05/17 06:31:26;;;;;;;14.95;6.72;;;17.60;99.90;;;;;;5094445;28;20044;-67
2022/05/17 06:33:52;;;;;;;18.63;7.43;;;17.60;99.90;;;;;;5094218;28;20072;-68
2022/05/17 06:36:17;;;;;;;15.57;6.63;;;17.70;99.90;;;;;;5094167;28;20039;-68
2022/05/17 06:38:43;;;;;;;14.77;7.00;;;17.70;99.90;;;;;;5093840;28;20040;-67
2022/05/17 06:41:08;;;;;;;18.98;6.53;;;17.90;99.90;;;;;;5094064;28;20036;-68
2022/05/17 06:43:34;;;;;;;16.48;6.50;;;17.90;99.90;;;;;;5094046;28;20044;-67
2022/05/17 06:46:03;;;;;;;13.15;5.20;;;18.00;99.90;;;;;;5094586;28;20047;-67
2022/05/17 06:48:29;;;;;;;15.40;5.93;;;18.10;99.90;;;;;;5093804;28;20048;-67
2022/05/17 06:51:02;;;;;;;13.95;5.78;;;18.10;99.90;;;;;;5094086;28;20040;-67
2022/05/17 06:53:28;;;;;;;21.02;6.25;;;18.10;99.90;;;;;;5094077;28;20036;-68
2022/05/17 06:55:53;;;;;;;15.50;5.80;;;18.20;99.90;;;;;;5092647;28;20055;-67
2022/05/17 06:58:22;;;;;;;18.80;5.78;;;18.30;99.90;;;;;;5093407;28;20043;-67
2022/05/17 07:00:47;;;;;;;17.17;6.32;;;18.30;99.90;;;;;;5093222;28;20044;-67
2022/05/17 07:03:14;;;;;;;13.63;5.47;;;18.40;99.90;;;;;;5093858;28;20603;-67
2022/05/17 07:05:40;;;;;;;12.77;5.38;;;18.40;99.90;;;;;;5093770;28;20076;-67
2022/05/17 07:08:06;;;;;;;11.98;5.45;;;18.60;99.90;;;;;;5093464;28;20044;-67
2022/05/17 07:13:16;;;;;;;23.63;5.88;;;18.70;99.90;;;;;;5093767;28;20040;-67
2022/05/17 07:15:47;;;;;;;22.83;6.15;;;18.80;99.90;;;;;;5093738;28;20672;-67
2022/05/17 07:18:15;;;;;;;16.85;5.05;;;18.80;99.90;;;;;;5092236;28;20089;-67
2022/05/17 07:20:41;;;;;;;14.95;5.45;;;18.80;99.90;;;;;;5093184;28;20047;-67
2022/05/17 07:23:07;;;;;;;10.07;5.47;;;18.90;99.90;;;;;;5093260;28;20088;-67
2022/05/17 07:25:33;;;;;;;19.52;5.65;;;19.00;99.90;;;;;;5093173;28;20526;-67
2022/05/17 07:28:00;;;;;;;13.63;4.88;;;18.90;99.90;;;;;;5093297;28;20044;-67
2022/05/17 07:30:26;;;;;;;11.65;5.35;;;19.00;99.90;;;;;;5093050;28;20047;-67
2022/05/17 07:32:51;;;;;;;13.93;4.97;;;19.10;99.90;;;;;;5093276;28;20039;-67
2022/05/17 07:35:17;;;;;;;10.32;4.28;;;19.10;99.90;;;;;;5093140;28;20044;-67
2022/05/17 07:37:43;;;;;;;12.70;5.18;;;19.20;99.90;;;;;;5092997;28;20039;-67
2022/05/17 07:40:12;;;;;;;15.80;5.75;;;19.10;99.90;;;;;;5092573;28;20089;-67
2022/05/17 07:42:40;;;;;;;16.20;5.22;;;19.20;99.90;;;;;;5093097;28;20109;-67
2022/05/17 07:45:07;;;;;;;15.80;5.75;;;19.20;99.90;;;;;;5093029;28;20028;-67
2022/05/17 07:47:33;;;;;;;16.42;5.57;;;19.30;99.90;;;;;;5092847;28;20040;-67
2022/05/17 07:49:59;;;;;;;13.57;4.97;;;19.30;99.90;;;;;;5092438;28;20156;-67
2022/05/17 07:52:25;;;;;;;13.27;5.03;;;19.50;99.90;;;;;;5092823;28;20072;-67
2022/05/17 07:54:50;;;;;;;16.27;5.40;;;19.30;99.90;;;;;;5092956;28;20197;-67
2022/05/17 07:57:16;;;;;;;14.68;5.07;;;19.30;99.90;;;;;;5092648;28;20124;-67
2022/05/17 07:59:41;;;;;;;12.80;5.40;;;19.50;99.90;;;;;;5092260;28;20123;-67
2022/05/17 08:02:07;;;;;;;13.85;4.80;;;19.60;99.90;;;;;;5092700;28;20050;-67
2022/05/17 08:04:33;;;;;;;10.13;4.45;;;19.70;99.90;;;;;;5092894;28;20500;-67
2022/05/17 08:06:59;;;;;;;14.07;4.82;;;19.70;99.90;;;;;;5092804;28;20097;-67
2022/05/17 08:09:25;;;;;;;14.00;4.95;;;19.70;99.90;;;;;;5092527;28;20036;-67
2022/05/17 08:11:51;;;;;;;15.93;5.70;;;19.60;99.90;;;;;;5092749;28;20046;-67
2022/05/17 08:14:17;;;;;;;14.20;5.13;;;19.70;99.90;;;;;;5091953;28;20555;-67
2022/05/17 08:16:43;;;;;;;15.93;5.93;;;19.60;99.90;;;;;;5092458;28;20055;-67
2022/05/17 08:19:10;;;;;;;20.58;5.70;;;19.70;99.90;;;;;;5090564;28;20465;-67
2022/05/17 08:21:36;;;;;;;19.65;5.35;;;19.80;99.90;;;;;;5092137;28;20036;-67
2022/05/17 08:24:02;;;;;;;12.30;5.57;;;19.80;99.90;;;;;;5092384;28;20036;-67
2022/05/17 08:29:19;;;;;;;13.63;4.73;;;20.00;99.90;;;;;;5067791;28;20044;-67
2022/05/17 08:33:14;;;;;;;15.20;5.32;;;20.10;99.90;;;;;;5092311;28;20032;-67
2022/05/17 08:34:30;;;;;;;17.45;5.20;;;20.10;99.90;;;;;;5091876;28;20043;-67
2022/05/17 08:36:56;;;;;;;16.92;5.70;;;20.20;99.90;;;;;;5092103;28;20043;-67
2022/05/17 08:39:21;;;;;;;17.00;5.38;;;20.10;99.90;;;;;;5090410;28;20463;-67
2022/05/17 08:41:53;;;;;;;16.58;5.30;;;20.30;99.90;;;;;;5091798;28;20044;-67
2022/05/17 08:44:27;;;;;;;16.20;5.72;;;20.30;99.90;;;;;;5091802;28;20044;-67
2022/05/17 08:47:16;;;;;;;10.32;4.70;;;20.40;99.90;;;;;;5090600;28;20115;-67
2022/05/17 08:49:57;;;;;;;15.70;4.57;;;20.40;99.90;;;;;;5091390;28;20405;-67
2022/05/17 08:52:25;;;;;;;16.25;5.25;;;20.30;99.90;;;;;;5091592;28;20173;-67
2022/05/17 08:54:54;;;;;;;11.05;4.45;;;20.40;99.90;;;;;;5091405;28;20168;-67
2022/05/17 08:57:30;;;;;;;19.05;5.43;;;20.50;99.90;;;;;;5091650;28;20044;-67
2022/05/17 08:59:59;;;;;;;13.32;4.60;;;20.60;99.90;;;;;;5091145;28;20412;-67
2022/05/17 09:02:56;;;;;;;14.02;4.07;;;20.60;99.90;;;;;;5091513;28;20121;-67
2022/05/17 09:05:48;;;;;;;17.25;4.78;;;20.70;99.90;;;;;;5091328;28;20048;-67
2022/05/17 09:08:33;;;;;;;9.20;4.55;;;20.80;99.90;;;;;;5090117;28;20044;-67
2022/05/17 09:11:18;;;;;;;15.55;4.38;;;20.80;99.90;;;;;;5091527;28;20050;-67
2022/05/17 09:13:55;;;;;;;8.23;3.55;;;20.90;99.90;;;;;;5091272;28;20036;-67
2022/05/17 09:16:25;;;;;;;12.43;3.38;;;21.10;99.90;;;;;;5091584;28;20040;-68
2022/05/17 09:18:51;;;;;;;10.98;3.65;;;21.10;99.90;;;;;;5091189;28;20082;-67
2022/05/17 09:21:29;;;;;;;12.07;4.22;;;21.20;99.90;;;;;;5091285;28;20071;-67
2022/05/17 09:23:56;;;;;;;12.82;3.55;;;21.20;99.90;;;;;;5091185;28;20500;-67
2022/05/17 09:26:22;;;;;;;15.27;4.00;;;21.10;99.90;;;;;;5091316;28;20051;-67
2022/05/17 09:28:53;;;;;;;9.05;2.90;;;21.20;99.90;;;;;;5090719;28;20040;-67
2022/05/17 09:31:21;;;;;;;8.30;2.92;;;21.20;99.90;;;;;;5091220;28;20090;-67
2022/05/17 09:33:48;;;;;;;11.07;3.13;;;21.30;99.90;;;;;;5091083;28;20091;-67
2022/05/17 09:36:20;;;;;;;12.00;3.38;;;21.40;99.90;;;;;;5091043;28;20412;-67
2022/05/17 09:38:47;;;;;;;10.18;3.20;;;21.40;99.90;;;;;;5090565;28;20066;-67
2022/05/17 09:41:19;;;;;;;13.48;2.50;;;21.50;99.90;;;;;;5089937;28;20040;-68
2022/05/17 09:44:08;;;;;;;9.05;3.08;;;21.70;99.90;;;;;;5091074;28;20065;-68
2022/05/17 09:46:44;;;;;;;13.23;2.65;;;21.60;99.90;;;;;;5091121;28;20470;-68
2022/05/17 09:52:32;;;;;;;14.05;2.80;;;21.90;99.90;;;;;;5091006;28;20036;-68
2022/05/17 09:55:22;;;;;;;15.80;2.25;;;22.00;99.90;;;;;;5090885;28;20115;-68
2022/05/17 09:58:01;;;;;;;9.68;2.85;;;22.00;99.90;;;;;;5091044;28;20039;-68
2022/05/17 10:00:45;;;;;;;8.90;2.10;;;22.10;99.90;;;;;;5090454;28;20044;-68
2022/05/17 10:03:32;;;;;;;9.13;2.35;;;22.10;99.90;;;;;;5090790;28;20400;-68
2022/05/17 10:06:29;;;;;;;11.10;2.78;;;22.10;99.90;;;;;;5090955;28;20040;-68
2022/05/17 10:09:07;;;;;;;9.38;2.40;;;22.00;99.90;;;;;;5079403;28;20044;-68
2022/05/17 10:11:48;;;;;;;10.80;2.85;;;22.00;99.90;;;;;;5090579;28;20059;-68
2022/05/17 10:14:39;;;;;;;9.83;2.40;;;22.10;99.90;;;;;;5090668;28;20040;-68
2022/05/17 10:17:35;;;;;;;12.45;2.60;;;22.00;99.90;;;;;;5079985;28;20079;-68
2022/05/17 10:20:43;;;;;;;15.40;2.30;;;22.00;99.90;;;;;;5090259;28;20051;-68
2022/05/17 10:23:24;;;;;;;10.80;2.55;;;22.10;99.90;;;;;;5090851;28;20052;-68
2022/05/17 10:25:53;;;;;;;11.20;2.78;;;22.10;99.90;;;;;;5089130;28;20052;-68
2022/05/17 10:28:33;;;;;;;10.05;2.97;;;22.10;99.90;;;;;;5090190;28;20107;-68
2022/05/17 10:31:16;;;;;;;13.52;2.47;;;22.10;99.90;;;;;;5090346;28;20036;-68
2022/05/17 10:34:08;;;;;;;12.50;2.70;;;22.20;99.90;;;;;;5090542;28;20507;-68
2022/05/17 10:36:46;;;;;;;10.40;2.17;;;22.20;99.90;;;;;;5092426;28;20067;-68
2022/05/17 10:39:17;;;;;;;11.52;3.10;;;22.20;99.90;;;;;;5093823;28;20123;-68
2022/05/17 10:41:43;;;;;;;13.60;3.10;;;22.30;99.90;;;;;;5094551;28;20078;-68
2022/05/17 10:44:15;;;;;;;8.45;2.60;;;22.10;99.90;;;;;;5094051;28;20126;-68
2022/05/17 10:46:48;;;;;;;11.55;2.20;;;22.00;99.90;;;;;;5094177;28;20036;-68
2022/05/17 10:49:35;;;;;;;9.23;1.67;;;22.00;99.90;;;;;;5093643;28;20124;-68
2022/05/17 10:52:18;;;;;;;10.02;2.08;;;22.00;99.90;;;;;;5094209;28;20485;-68
2022/05/17 10:55:11;;;;;;;9.48;2.38;;;22.10;99.90;;;;;;5094034;28;20043;-68
2022/05/17 10:57:56;;;;;;;10.05;3.15;;;22.10;99.90;;;;;;5093870;28;20466;-68
2022/05/17 11:00:44;;;;;;;13.32;3.63;;;21.80;99.90;;;;;;5093394;28;20046;-68
2022/05/17 11:03:18;;;;;;;12.68;3.60;;;21.80;99.90;;;;;;5093903;28;20051;-68
2022/05/17 11:06:29;;;;;;;14.07;3.88;;;21.90;99.90;;;;;;5093837;28;20056;-68
2022/05/17 11:09:15;;;;;;;14.60;3.38;;;22.00;99.90;;;;;;5073482;28;20084;-68
2022/05/17 11:11:49;;;;;;;12.90;3.30;;;21.80;99.90;;;;;;5093679;28;20040;-68
2022/05/17 11:14:42;;;;;;;15.90;4.20;;;21.70;99.90;;;;;;5093573;28;20416;-67
2022/05/17 11:17:44;;;;;;;14.48;4.40;;;21.80;99.90;;;;;;5093650;28;20043;-68
2022/05/17 11:20:09;;;;;;;10.95;3.00;;;22.00;99.90;;;;;;5083024;28;20127;-68
2022/05/17 11:22:38;;;;;;;13.88;4.03;;;21.90;99.90;;;;;;5093378;28;20135;-67
2022/05/17 11:25:33;;;;;;;10.75;3.72;;;21.80;99.90;;;;;;5093204;28;20051;-68
2022/05/17 11:28:17;;;;;;;14.85;4.82;;;21.70;99.90;;;;;;5093351;28;20048;-68
2022/05/17 11:30:56;;;;;;;14.60;4.50;;;21.50;99.90;;;;;;5093035;28;20032;-68
2022/05/17 11:33:21;;;;;;;16.13;4.07;;;21.50;99.90;;;;;;5091911;28;20089;-68
2022/05/17 11:35:53;;;;;;;13.45;4.80;;;21.40;99.90;;;;;;5093031;28;20048;-68
2022/05/17 11:38:49;;;;;;;12.90;4.80;;;21.50;99.90;;;;;;5093019;28;20454;-68
2022/05/17 11:41:33;;;;;;;12.02;3.97;;;21.60;99.90;;;;;;5091826;28;20040;-68
2022/05/17 11:44:08;;;;;;;22.00;5.68;;;21.60;99.90;;;;;;5092875;28;20565;-68
2022/05/17 11:46:34;;;;;;;16.15;5.10;;;21.60;99.90;;;;;;5092960;28;20044;-68
2022/05/17 11:49:12;;;;;;;15.75;5.32;;;21.50;99.90;;;;;;5091535;28;20056;-68
2022/05/17 11:51:59;;;;;;;15.40;5.50;;;21.60;99.90;;;;;;5092865;28;20043;-68
2022/05/17 11:54:45;;;;;;;16.00;5.80;;;21.60;99.90;;;;;;5091572;28;20123;-67
2022/05/17 11:57:30;;;;;;;15.25;5.63;;;21.50;99.90;;;;;;5092802;28;20043;-68
2022/05/17 12:00:04;;;;;;;15.55;5.80;;;21.60;99.90;;;;;;5092055;28;20040;-68
2022/05/17 12:02:49;;;;;;;16.02;5.80;;;21.60;99.90;;;;;;5092597;28;20048;-68
2022/05/17 12:05:43;;;;;;;16.92;5.82;;;21.60;99.90;;;;;;5092618;28;20496;-68
2022/05/17 12:08:27;;;;;;;11.73;5.63;;;21.70;99.90;;;;;;5092333;28;20048;-68
2022/05/17 12:11:36;;;;;;;17.88;5.93;;;21.70;99.90;;;;;;5092308;28;20036;-67
2022/05/17 12:14:29;;;;;;;14.00;4.72;;;21.70;99.90;;;;;;5091014;28;20044;-68
2022/05/17 12:17:01;;;;;;;13.80;5.40;;;21.60;99.90;;;;;;5092237;28;20040;-67
2022/05/17 12:19:45;;;;;;;12.75;5.05;;;21.50;99.90;;;;;;5092198;28;20512;-68
2022/05/17 12:22:23;;;;;;;17.08;5.60;;;21.60;99.90;;;;;;5092512;28;20117;-68
2022/05/17 12:25:07;;;;;;;14.43;5.40;;;21.70;99.90;;;;;;5092275;28;20061;-68
2022/05/17 12:27:35;;;;;;;16.13;4.50;;;21.70;99.90;;;;;;5092075;28;20051;-68
2022/05/17 12:33:33;;;;;;;16.42;5.03;;;21.70;99.90;;;;;;5092052;28;20043;-68
2022/05/17 12:36:18;;;;;;;9.98;3.78;;;21.70;99.90;;;;;;5091929;28;20147;-68
2022/05/17 12:44:44;;;;;;;15.10;6.00;;;21.60;99.90;;;;;;5091885;28;20043;-68
2022/05/17 12:47:15;;;;;;;13.93;5.97;;;21.50;99.90;;;;;;5091950;28;20046;-68
2022/05/17 12:49:42;;;;;;;12.75;6.03;;;21.50;99.90;;;;;;5091406;28;20047;-68
2022/05/17 12:52:41;;;;;;;13.98;5.53;;;21.40;99.90;;;;;;5090277;28;20128;-68
2022/05/17 12:55:12;;;;;;;14.35;5.93;;;21.60;99.90;;;;;;5057834;28;20133;-68
2022/05/17 12:57:39;;;;;;;13.32;5.75;;;21.50;99.90;;;;;;5091639;28;20395;-68
2022/05/17 13:00:16;;;;;;;15.00;4.88;;;21.50;99.90;;;;;;5090846;28;20450;-68
2022/05/17 13:02:45;;;;;;;12.23;4.65;;;21.70;99.90;;;;;;5091460;28;20411;-68
2022/05/17 13:05:26;;;;;;;21.35;5.75;;;21.70;99.90;;;;;;5091615;28;20523;-68
2022/05/17 13:08:02;;;;;;;15.23;5.57;;;21.60;99.90;;;;;;5091479;28;20404;-68
2022/05/17 13:10:28;;;;;;;16.33;4.53;;;21.70;99.90;;;;;;5091040;28;20400;-68
2022/05/17 13:12:53;;;;;;;11.43;2.85;;;21.60;99.90;;;;;;5091282;28;20035;-68
2022/05/17 13:15:19;;;;;;;9.95;3.53;;;21.70;99.90;;;;;;5091149;28;20503;-68
2022/05/17 13:17:53;;;;;;;10.50;3.42;;;21.70;99.90;;;;;;5091432;28;20546;-68